createdAt,value
2019-05-22T00:00:41.041Z,3.33
2019-05-22T00:03:13.890Z,3.20
2019-05-22T00:05:47.002Z,3.90
2019-05-22T00:08:17.620Z,3.50
2019-05-22T00:10:49.709Z,3.93
2019-05-22T00:13:25.332Z,4.70
2019-05-22T00:15:57.162Z,4.00
2019-05-22T00:18:30.742Z,4.33
2019-05-22T00:21:01.400Z,4.63
2019-05-22T00:23:33.087Z,4.53
2019-05-22T00:26:04.130Z,5.20
2019-05-22T00:28:36.293Z,5.10
2019-05-22T00:31:08.507Z,5.00
2019-05-22T00:33:39.335Z,5.37
2019-05-22T00:36:13.558Z,5.40
2019-05-22T00:38:44.556Z,5.33
2019-05-22T00:41:18.546Z,4.83
2019-05-22T00:43:51.662Z,5.73
2019-05-22T00:46:25.449Z,6.13
2019-05-22T00:48:56.161Z,5.80
2019-05-22T00:51:29.843Z,5.93
2019-05-22T00:54:03.830Z,6.07
2019-05-22T00:56:38.742Z,7.43
2019-05-22T00:59:10.089Z,6.70
2019-05-22T01:01:52.402Z,6.53
2019-05-22T01:04:25.617Z,6.80
2019-05-22T01:06:58.188Z,6.70
2019-05-22T01:09:32.368Z,6.43
2019-05-22T01:12:03.854Z,6.70
2019-05-22T01:14:42.797Z,6.57
2019-05-22T01:17:08.131Z,6.60
2019-05-22T01:19:39.658Z,5.90
2019-05-22T01:22:11.189Z,6.07
2019-05-22T01:24:42.596Z,6.30
2019-05-22T01:27:14.131Z,6.27
2019-05-22T01:29:46.361Z,5.80
2019-05-22T01:32:18.658Z,5.50
2019-05-22T01:34:51.511Z,5.90
2019-05-22T01:37:22.002Z,6.43
2019-05-22T01:39:58.846Z,4.50
2019-05-22T01:42:34.420Z,5.00
2019-05-22T01:45:09.662Z,4.97
2019-05-22T01:47:56.745Z,4.67
2019-05-22T01:50:49.035Z,5.17
2019-05-22T01:53:21.673Z,5.33
2019-05-22T01:55:54.140Z,5.73
2019-05-22T01:58:26.177Z,6.60
2019-05-22T02:00:57.963Z,6.03
2019-05-22T02:03:31.224Z,6.30
2019-05-22T02:06:04.394Z,6.37
2019-05-22T02:08:41.683Z,5.53
2019-05-22T02:11:16.426Z,6.40
2019-05-22T02:14:01.405Z,5.83
2019-05-22T02:16:33.541Z,6.60
2019-05-22T02:19:05.193Z,5.23
2019-05-22T02:21:35.823Z,6.20
2019-05-22T02:24:10.172Z,5.77
2019-05-22T02:26:42.730Z,6.77
2019-05-22T02:29:16.948Z,5.43
2019-05-22T02:31:48.949Z,6.37
2019-05-22T02:34:19.495Z,6.13
2019-05-22T02:36:50.959Z,6.33
2019-05-22T02:39:23.914Z,6.47
2019-05-22T02:42:05.489Z,6.80
2019-05-22T02:44:38.310Z,7.30
2019-05-22T02:47:20.151Z,7.30
2019-05-22T02:49:44.913Z,6.80
2019-05-22T02:52:16.768Z,7.50
2019-05-22T02:54:50.156Z,7.90
2019-05-22T02:57:22.069Z,7.80
2019-05-22T02:59:53.208Z,7.13
2019-05-22T03:02:25.514Z,7.33
2019-05-22T03:05:01.509Z,8.53
2019-05-22T03:07:33.992Z,8.23
2019-05-22T03:10:09.096Z,6.90
2019-05-22T03:12:41.770Z,6.07
2019-05-22T03:15:16.198Z,6.27
2019-05-22T03:17:47.984Z,6.00
2019-05-22T03:20:22.390Z,6.00
2019-05-22T03:23:35.098Z,6.60
2019-05-22T03:26:09.744Z,7.00
2019-05-22T03:28:41.387Z,7.40
2019-05-22T03:31:13.132Z,7.63
2019-05-22T03:33:44.855Z,9.60
2019-05-22T03:36:21.270Z,8.80
2019-05-22T03:38:52.253Z,7.67
2019-05-22T03:41:26.314Z,7.67
2019-05-22T03:43:58.621Z,7.13
2019-05-22T03:46:37.095Z,6.20
2019-05-22T03:49:27.973Z,5.43
2019-05-22T03:51:44.389Z,6.03
2019-05-22T03:54:15.287Z,6.33
2019-05-22T03:56:46.702Z,6.07
2019-05-22T03:59:17.153Z,5.47
2019-05-22T04:01:47.816Z,5.03
2019-05-22T04:04:35.549Z,5.67
2019-05-22T04:07:08.209Z,5.47
2019-05-22T04:09:40.673Z,5.53
2019-05-22T04:12:11.663Z,6.47
2019-05-22T04:14:42.889Z,6.00
2019-05-22T04:17:17.227Z,5.90
2019-05-22T04:19:51.029Z,6.00
2019-05-22T04:22:20.193Z,12.87
2019-05-22T04:24:50.937Z,12.90
2019-05-22T04:27:21.560Z,19.70
2019-05-22T04:29:52.733Z,17.10
2019-05-22T04:32:25.927Z,26.70
2019-05-22T04:34:57.336Z,48.30
2019-05-22T04:37:29.793Z,35.00
2019-05-22T04:40:25.829Z,28.53
2019-05-22T04:42:59.996Z,19.40
2019-05-22T04:45:30.715Z,5.60
2019-05-22T04:48:03.797Z,4.20
2019-05-22T04:50:36.189Z,3.37
2019-05-22T04:53:10.137Z,3.20
2019-05-22T04:55:41.468Z,2.73
2019-05-22T04:58:19.745Z,3.27
2019-05-22T05:00:52.110Z,3.13
2019-05-22T05:03:22.794Z,3.27
2019-05-22T05:05:54.211Z,3.57
2019-05-22T05:08:24.750Z,3.97
2019-05-22T05:10:56.063Z,4.67
2019-05-22T05:13:28.053Z,2.53
2019-05-22T05:15:58.606Z,2.17
2019-05-22T05:18:29.717Z,1.63
2019-05-22T05:21:00.284Z,2.30
2019-05-22T05:23:31.191Z,2.07
2019-05-22T05:26:01.837Z,1.93
2019-05-22T05:28:33.742Z,2.00
2019-05-22T05:31:04.311Z,8.50
2019-05-22T05:33:39.521Z,10.87
2019-05-22T05:36:11.051Z,12.07
2019-05-22T05:38:42.060Z,17.73
2019-05-22T05:41:12.789Z,10.83
2019-05-22T05:43:43.322Z,4.53
2019-05-22T05:46:13.972Z,4.60
2019-05-22T05:48:44.519Z,36.53
2019-05-22T05:51:23.328Z,24.33
2019-05-22T05:54:09.555Z,10.67
2019-05-22T05:56:43.415Z,4.80
2019-05-22T05:59:15.824Z,4.30
2019-05-22T06:01:48.574Z,4.40
2019-05-22T06:04:34.043Z,4.57
2019-05-22T06:07:20.035Z,12.10
2019-05-22T06:09:55.951Z,11.83
2019-05-22T06:12:27.477Z,5.70
2019-05-22T06:14:58.110Z,3.90
2019-05-22T06:17:52.811Z,3.90
2019-05-22T06:20:25.144Z,4.30
2019-05-22T06:23:24.117Z,4.20
2019-05-22T06:25:58.582Z,4.30
2019-05-22T06:28:35.540Z,3.60
2019-05-22T06:31:10.688Z,3.97
2019-05-22T06:33:43.010Z,3.97
2019-05-22T06:36:16.669Z,3.80
2019-05-22T06:38:54.556Z,4.80
2019-05-22T06:41:28.181Z,33.27
2019-05-22T06:44:31.134Z,67.20
2019-05-22T06:47:02.053Z,11.97
2019-05-22T06:49:37.282Z,5.93
2019-05-22T06:52:09.534Z,5.27
2019-05-22T06:54:41.787Z,4.90
2019-05-22T06:57:17.255Z,4.83
2019-05-22T06:59:49.212Z,3.77
2019-05-22T07:02:20.294Z,4.00
2019-05-22T07:04:52.101Z,3.87
2019-05-22T07:07:24.886Z,4.47
2019-05-22T07:09:55.980Z,3.60
2019-05-22T07:12:29.430Z,3.70
2019-05-22T07:15:10.803Z,12.80
2019-05-22T07:17:42.063Z,8.87
2019-05-22T07:20:13.132Z,6.43
2019-05-22T07:22:45.094Z,2.67
2019-05-22T07:25:16.562Z,3.27
2019-05-22T07:27:48.074Z,2.60
2019-05-22T07:30:20.145Z,3.00
2019-05-22T07:32:51.365Z,2.87
2019-05-22T07:35:24.216Z,3.07
2019-05-22T07:37:56.047Z,3.77
2019-05-22T07:40:29.203Z,3.27
2019-05-22T07:43:00.311Z,3.67
2019-05-22T07:45:35.168Z,3.67
2019-05-22T07:48:08.085Z,3.13
2019-05-22T07:50:42.344Z,2.60
2019-05-22T07:53:13.659Z,2.93
2019-05-22T07:55:44.118Z,2.23
2019-05-22T07:58:18.191Z,19.60
2019-05-22T08:00:57.552Z,27.20
2019-05-22T08:03:30.312Z,5.90
2019-05-22T08:06:01.643Z,2.90
2019-05-22T08:08:33.277Z,3.00
2019-05-22T08:11:05.755Z,2.67
2019-05-22T08:13:38.699Z,3.63
2019-05-22T08:16:10.687Z,3.30
2019-05-22T08:18:42.799Z,3.10
2019-05-22T08:21:13.337Z,3.10
2019-05-22T08:23:45.107Z,3.50
2019-05-22T08:26:16.881Z,3.70
2019-05-22T08:28:49.205Z,3.43
2019-05-22T08:31:21.247Z,2.50
2019-05-22T08:33:52.716Z,2.30
2019-05-22T08:36:23.222Z,2.40
2019-05-22T08:38:55.548Z,16.70
2019-05-22T08:41:30.732Z,64.10
2019-05-22T08:44:16.226Z,111.20
2019-05-22T08:46:35.923Z,37.17
2019-05-22T08:49:09.386Z,7.07
2019-05-22T08:51:42.822Z,3.40
2019-05-22T08:54:15.511Z,3.13
2019-05-22T08:56:50.526Z,3.03
2019-05-22T08:59:22.295Z,1.97
2019-05-22T09:01:54.322Z,2.23
2019-05-22T09:04:26.129Z,3.40
2019-05-22T09:06:57.004Z,2.27
2019-05-22T09:09:28.181Z,2.40
2019-05-22T09:12:00.584Z,2.27
2019-05-22T09:14:32.716Z,1.83
2019-05-22T09:17:06.771Z,2.20
2019-05-22T09:19:37.934Z,2.20
2019-05-22T09:22:08.970Z,2.57
2019-05-22T09:24:41.100Z,3.17
2019-05-22T09:27:12.912Z,9.40
2019-05-22T09:29:45.251Z,12.10
2019-05-22T09:32:15.891Z,5.87
2019-05-22T09:34:47.672Z,6.67
2019-05-22T09:37:18.393Z,6.33
2019-05-22T09:39:48.882Z,7.20
2019-05-22T09:42:19.821Z,6.30
2019-05-22T09:44:50.984Z,5.10
2019-05-22T09:47:27.082Z,5.20
2019-05-22T09:49:57.828Z,36.33
2019-05-22T09:52:29.965Z,8.97
2019-05-22T09:55:00.568Z,6.17
2019-05-22T09:57:32.338Z,8.30
2019-05-22T10:00:08.415Z,5.73
2019-05-22T10:02:39.694Z,4.80
2019-05-22T10:05:14.119Z,5.07
2019-05-22T10:07:59.364Z,4.80
2019-05-22T10:10:18.240Z,4.90
2019-05-22T10:12:49.126Z,5.13
2019-05-22T10:15:19.753Z,4.83
2019-05-22T10:17:50.830Z,5.20
2019-05-22T10:20:22.945Z,4.03
2019-05-22T10:22:53.548Z,4.33
2019-05-22T10:25:24.419Z,4.10
2019-05-22T10:27:59.019Z,4.40
2019-05-22T10:30:28.149Z,3.40
2019-05-22T10:32:59.367Z,3.00
2019-05-22T10:35:31.689Z,3.40
2019-05-22T10:38:02.553Z,2.70
2019-05-22T10:40:34.360Z,2.60
2019-05-22T10:43:05.175Z,2.80
2019-05-22T10:45:37.213Z,27.23
2019-05-22T10:48:08.680Z,80.77
2019-05-22T10:50:40.060Z,22.73
2019-05-22T10:53:11.723Z,4.80
2019-05-22T10:55:42.752Z,5.03
2019-05-22T10:58:13.804Z,4.83
2019-05-22T11:00:44.713Z,3.47
2019-05-22T11:03:17.598Z,5.00
2019-05-22T11:06:05.855Z,3.50
2019-05-22T11:08:21.316Z,2.73
2019-05-22T11:10:51.975Z,3.50
2019-05-22T11:13:22.729Z,2.57
2019-05-22T11:15:53.488Z,2.73
2019-05-22T11:18:23.991Z,3.10
2019-05-22T11:20:55.040Z,3.47
2019-05-22T11:23:26.385Z,3.90
2019-05-22T11:25:57.642Z,4.30
2019-05-22T11:28:29.628Z,3.93
2019-05-22T11:31:00.834Z,4.20
2019-05-22T11:33:34.149Z,4.73
2019-05-22T11:36:05.847Z,4.17
2019-05-22T11:38:36.461Z,4.40
2019-05-22T11:41:07.885Z,3.70
2019-05-22T11:43:38.741Z,4.10
2019-05-22T11:46:09.544Z,4.10
2019-05-22T11:48:40.542Z,4.30
2019-05-22T11:51:13.612Z,3.87
2019-05-22T11:53:46.279Z,3.60
2019-05-22T11:56:16.847Z,3.67
2019-05-22T11:58:47.363Z,2.97
2019-05-22T12:01:18.316Z,3.70
2019-05-22T12:03:49.824Z,4.03
2019-05-22T12:06:20.661Z,3.90
2019-05-22T12:08:51.876Z,3.40
2019-05-22T12:11:23.483Z,3.60
2019-05-22T12:13:54.706Z,4.23
2019-05-22T12:16:25.565Z,3.50
2019-05-22T12:18:58.653Z,3.70
2019-05-22T12:21:28.781Z,2.67
2019-05-22T12:23:59.571Z,3.30
2019-05-22T12:26:30.188Z,3.10
2019-05-22T12:29:00.906Z,3.77
2019-05-22T12:31:32.785Z,3.20
2019-05-22T12:34:03.960Z,3.07
2019-05-22T12:36:35.270Z,2.33
2019-05-22T12:39:28.004Z,2.03
2019-05-22T12:42:00.204Z,2.27
2019-05-22T12:44:30.787Z,2.73
2019-05-22T12:47:01.259Z,1.93
2019-05-22T12:49:31.905Z,4.50
2019-05-22T12:52:04.242Z,3.20
2019-05-22T12:54:46.087Z,2.50
2019-05-22T12:57:08.124Z,2.53
2019-05-22T12:59:38.764Z,3.50
2019-05-22T13:02:10.905Z,3.00
2019-05-22T13:04:42.674Z,2.77
2019-05-22T13:07:15.673Z,3.10
2019-05-22T13:09:46.300Z,2.80
2019-05-22T13:12:17.322Z,2.60
2019-05-22T13:15:07.884Z,3.00
2019-05-22T13:17:25.912Z,3.30
2019-05-22T13:19:56.510Z,4.33
2019-05-22T13:22:28.507Z,3.90
2019-05-22T13:24:59.148Z,3.33
2019-05-22T13:27:31.288Z,2.90
2019-05-22T13:30:04.144Z,2.87
2019-05-22T13:32:38.076Z,2.60
2019-05-22T13:35:10.447Z,2.80
2019-05-22T13:37:40.928Z,2.23
2019-05-22T13:40:27.137Z,2.70
2019-05-22T13:42:45.544Z,2.47
2019-05-22T13:45:28.581Z,2.23
2019-05-22T13:47:53.005Z,2.67
2019-05-22T13:50:28.486Z,2.10
2019-05-22T13:52:58.554Z,2.33
2019-05-22T13:55:29.358Z,2.20
2019-05-22T13:58:02.134Z,2.37
2019-05-22T14:00:32.760Z,2.03
2019-05-22T14:03:03.495Z,1.80
2019-05-22T14:05:36.477Z,1.90
2019-05-22T14:08:09.208Z,2.00
2019-05-22T14:10:40.663Z,1.83
2019-05-22T14:13:11.403Z,1.47
2019-05-22T14:15:50.433Z,1.93
2019-05-22T14:18:15.851Z,1.80
2019-05-22T14:20:46.776Z,1.67
2019-05-22T14:23:17.638Z,1.00
2019-05-22T14:25:49.714Z,0.90
2019-05-22T14:28:22.621Z,1.07
2019-05-22T14:30:53.449Z,0.87
2019-05-22T14:33:27.990Z,1.20
2019-05-22T14:35:57.969Z,0.80
2019-05-22T14:38:29.365Z,1.10
2019-05-22T14:41:01.965Z,1.07
2019-05-22T14:43:33.489Z,1.07
2019-05-22T14:46:05.448Z,1.10
2019-05-22T14:48:36.741Z,1.37
2019-05-22T14:51:08.140Z,1.13
2019-05-22T14:53:40.364Z,1.30
2019-05-22T14:56:11.505Z,1.10
2019-05-22T14:58:46.138Z,1.30
2019-05-22T15:01:19.514Z,1.40
2019-05-22T15:03:51.043Z,1.53
2019-05-22T15:06:22.662Z,1.57
2019-05-22T15:08:53.986Z,0.93
2019-05-22T15:11:24.758Z,6.70
2019-05-22T15:13:55.471Z,8.57
2019-05-22T15:16:26.142Z,6.73
2019-05-22T15:18:56.884Z,1.77
2019-05-22T15:21:27.942Z,5.33
2019-05-22T15:23:59.727Z,1.80
2019-05-22T15:26:30.564Z,1.10
2019-05-22T15:29:01.099Z,1.73
2019-05-22T15:31:32.251Z,0.87
2019-05-22T15:34:05.898Z,1.00
2019-05-22T15:36:37.992Z,2.07
2019-05-22T15:39:11.847Z,1.03
2019-05-22T15:41:43.076Z,0.90
2019-05-22T15:44:14.061Z,1.20
2019-05-22T15:46:46.566Z,2.03
2019-05-22T15:49:19.230Z,1.20
2019-05-22T15:51:50.659Z,1.10
2019-05-22T15:54:21.691Z,1.00
2019-05-22T15:56:54.883Z,1.73
2019-05-22T15:59:28.894Z,1.20
2019-05-22T16:02:01.196Z,1.30
2019-05-22T16:04:34.370Z,1.20
2019-05-22T16:07:05.105Z,1.40
2019-05-22T16:09:35.948Z,1.33
2019-05-22T16:12:07.458Z,12.43
2019-05-22T16:14:40.124Z,35.97
2019-05-22T16:17:12.129Z,3.63
2019-05-22T16:19:43.941Z,1.30
2019-05-22T16:22:16.029Z,1.73
2019-05-22T16:24:46.734Z,1.50
2019-05-22T16:27:17.711Z,1.40
2019-05-22T16:29:53.778Z,1.70
2019-05-22T16:32:28.065Z,1.27
2019-05-22T16:34:59.491Z,1.33
2019-05-22T16:37:31.196Z,1.20
2019-05-22T16:40:02.794Z,1.23
2019-05-22T16:42:36.279Z,1.90
2019-05-22T16:45:09.468Z,14.90
2019-05-22T16:47:42.478Z,3.63
2019-05-22T16:50:14.488Z,1.70
2019-05-22T16:52:45.989Z,1.60
2019-05-22T16:55:17.208Z,1.23
2019-05-22T16:57:50.139Z,1.60
2019-05-22T17:00:21.301Z,1.27
2019-05-22T17:02:52.174Z,1.50
2019-05-22T17:05:24.589Z,1.47
2019-05-22T17:07:56.390Z,1.77
2019-05-22T17:10:27.265Z,1.70
2019-05-22T17:12:59.281Z,2.00
2019-05-22T17:15:30.781Z,1.50
2019-05-22T17:18:01.429Z,1.80
2019-05-22T17:20:32.309Z,1.70
2019-05-22T17:23:03.127Z,1.80
2019-05-22T17:25:34.069Z,1.63
2019-05-22T17:28:06.780Z,1.70
2019-05-22T17:30:38.788Z,1.80
2019-05-22T17:33:10.009Z,1.90
2019-05-22T17:35:42.226Z,1.47
2019-05-22T17:38:12.729Z,1.77
2019-05-22T17:40:44.671Z,2.00
2019-05-22T17:43:16.278Z,10.60
2019-05-22T17:45:47.751Z,4.27
2019-05-22T17:48:21.342Z,4.47
2019-05-22T17:50:53.942Z,1.70
2019-05-22T17:53:25.119Z,1.50
2019-05-22T17:55:55.814Z,1.60
2019-05-22T17:58:30.129Z,1.50
2019-05-22T18:01:01.858Z,1.50
2019-05-22T18:03:32.538Z,1.67
2019-05-22T18:06:06.208Z,1.30
2019-05-22T18:08:39.458Z,1.50
2019-05-22T18:11:10.732Z,1.87
2019-05-22T18:14:02.152Z,1.97
2019-05-22T18:16:33.278Z,1.80
2019-05-22T18:19:05.371Z,1.70
2019-05-22T18:21:38.577Z,2.30
2019-05-22T18:24:09.926Z,4.30
2019-05-22T18:26:40.466Z,2.90
2019-05-22T18:29:11.102Z,1.70
2019-05-22T18:31:42.237Z,1.80
2019-05-22T18:34:12.697Z,1.90
2019-05-22T18:36:43.189Z,1.87
2019-05-22T18:39:15.393Z,1.60
2019-05-22T18:41:46.051Z,1.87
2019-05-22T18:44:17.580Z,1.60
2019-05-22T18:46:48.542Z,1.87
2019-05-22T18:49:19.010Z,1.97
2019-05-22T18:51:49.818Z,1.50
2019-05-22T18:54:20.314Z,2.27
2019-05-22T18:56:50.942Z,1.50
2019-05-22T18:59:21.484Z,2.27
2019-05-22T19:01:52.054Z,2.07
2019-05-22T19:04:23.166Z,1.83
2019-05-22T19:06:56.186Z,1.80
2019-05-22T19:09:26.667Z,2.27
2019-05-22T19:11:57.335Z,2.53
2019-05-22T19:14:28.006Z,4.47
2019-05-22T19:16:58.835Z,2.37
2019-05-22T19:19:29.393Z,2.30
2019-05-22T19:22:01.269Z,2.90
2019-05-22T19:24:31.777Z,5.20
2019-05-22T19:27:02.213Z,3.30
2019-05-22T19:29:32.897Z,4.07
2019-05-22T19:32:03.623Z,3.83
2019-05-22T19:34:35.880Z,3.60
2019-05-22T19:37:06.421Z,3.77
2019-05-22T19:39:38.372Z,3.13
2019-05-22T19:42:09.978Z,2.43
2019-05-22T19:44:40.518Z,2.83
2019-05-22T19:47:11.225Z,3.23
2019-05-22T19:49:43.891Z,3.97
2019-05-22T19:52:22.107Z,3.60
2019-05-22T19:54:50.355Z,40.07
2019-05-22T19:57:21.307Z,50.23
2019-05-22T19:59:52.296Z,9.10
2019-05-22T20:02:24.236Z,4.40
2019-05-22T20:04:54.859Z,4.30
2019-05-22T20:07:26.206Z,3.97
2019-05-22T20:09:56.894Z,3.77
2019-05-22T20:12:28.362Z,4.53
2019-05-22T20:14:58.976Z,4.80
2019-05-22T20:17:31.276Z,4.40
2019-05-22T20:20:02.235Z,5.50
2019-05-22T20:22:32.802Z,16.30
2019-05-22T20:25:03.693Z,9.40
2019-05-22T20:27:34.672Z,5.20
2019-05-22T20:30:07.806Z,4.27
2019-05-22T20:32:39.404Z,3.00
2019-05-22T20:35:11.542Z,3.30
2019-05-22T20:37:44.384Z,1.00
2019-05-22T20:40:18.198Z,0.90
2019-05-22T20:42:49.361Z,1.77
2019-05-22T20:45:27.880Z,3.93
2019-05-22T20:48:09.770Z,1.80
2019-05-22T20:50:40.572Z,2.30
2019-05-22T20:53:11.180Z,1.50
2019-05-22T20:55:42.590Z,0.87
2019-05-22T20:58:14.677Z,0.87
2019-05-22T21:00:45.823Z,1.03
2019-05-22T21:03:17.426Z,0.80
2019-05-22T21:05:49.243Z,1.20
2019-05-22T21:08:24.412Z,1.10
2019-05-22T21:10:56.295Z,1.20
2019-05-22T21:13:28.338Z,0.70
2019-05-22T21:16:01.137Z,0.83
2019-05-22T21:18:45.234Z,1.00
2019-05-22T21:21:16.459Z,1.10
2019-05-22T21:23:47.226Z,0.90
2019-05-22T21:26:18.832Z,0.97
2019-05-22T21:28:49.763Z,1.00
2019-05-22T21:31:22.365Z,1.20
2019-05-22T21:33:53.983Z,0.80
2019-05-22T21:36:24.765Z,0.87
2019-05-22T21:38:55.936Z,0.90
2019-05-22T21:41:26.744Z,0.80
2019-05-22T21:43:58.061Z,1.23
2019-05-22T21:46:28.799Z,1.10
2019-05-22T21:49:00.098Z,0.90
2019-05-22T21:51:30.963Z,1.07
2019-05-22T21:54:01.869Z,0.80
2019-05-22T21:56:32.372Z,0.90
2019-05-22T21:59:03.588Z,0.80
2019-05-22T22:01:39.187Z,0.90
2019-05-22T22:04:11.476Z,0.80
2019-05-22T22:06:42.242Z,1.10
2019-05-22T22:09:14.703Z,0.80
2019-05-22T22:11:46.202Z,0.60
2019-05-22T22:14:19.424Z,0.50
2019-05-22T22:16:51.383Z,0.77
2019-05-22T22:19:22.417Z,1.00
2019-05-22T22:21:53.658Z,0.80
2019-05-22T22:24:24.155Z,1.23
2019-05-22T22:26:55.636Z,0.60
2019-05-22T22:29:26.337Z,0.67
2019-05-22T22:31:59.187Z,0.77
2019-05-22T22:34:43.589Z,1.73
2019-05-22T22:37:16.478Z,0.87
2019-05-22T22:39:51.080Z,0.83
2019-05-22T22:42:25.181Z,1.13
2019-05-22T22:44:57.567Z,0.97
2019-05-22T22:47:30.379Z,0.60
2019-05-22T22:50:01.091Z,0.60
2019-05-22T22:52:33.674Z,0.80
2019-05-22T22:55:08.727Z,1.03
2019-05-22T22:57:39.688Z,0.80
2019-05-22T23:00:13.550Z,1.30
2019-05-22T23:02:44.391Z,0.83
2019-05-22T23:05:16.896Z,0.83
2019-05-22T23:07:49.125Z,1.10
2019-05-22T23:10:21.606Z,1.00
2019-05-22T23:12:54.989Z,0.80
2019-05-22T23:15:26.632Z,1.10
2019-05-22T23:17:57.829Z,1.10
2019-05-22T23:20:27.515Z,0.80
2019-05-22T23:22:57.514Z,0.90
2019-05-22T23:25:27.974Z,1.27
2019-05-22T23:27:59.315Z,1.23
2019-05-22T23:30:31.431Z,0.93
2019-05-22T23:33:03.236Z,0.80
2019-05-22T23:35:34.844Z,1.00
2019-05-22T23:38:05.867Z,0.90
2019-05-22T23:40:37.439Z,1.70
2019-05-22T23:43:08.409Z,0.93
2019-05-22T23:45:39.932Z,1.70
2019-05-22T23:48:13.322Z,1.03
2019-05-22T23:50:44.780Z,0.83
2019-05-22T23:53:16.574Z,0.90
2019-05-22T23:55:48.849Z,1.10
2019-05-22T23:58:20.272Z,0.90
